createdAt,value
2023-04-11T00:00:56.346Z,2.50
2023-04-11T00:03:23.508Z,2.50
2023-04-11T00:05:50.547Z,2.40
2023-04-11T00:08:17.528Z,2.40
2023-04-11T00:10:45.756Z,2.40
2023-04-11T00:13:12.948Z,2.40
2023-04-11T00:15:39.906Z,2.40
2023-04-11T00:18:07.747Z,2.40
2023-04-11T00:20:34.723Z,2.40
2023-04-11T00:23:01.740Z,2.40
2023-04-11T00:25:30.277Z,2.40
2023-04-11T00:27:57.556Z,2.40
2023-04-11T00:30:24.716Z,2.30
2023-04-11T00:32:51.647Z,2.30
2023-04-11T00:35:18.739Z,2.30
2023-04-11T00:37:46.546Z,2.30
2023-04-11T00:40:18.786Z,2.30
2023-04-11T00:42:45.736Z,2.30
2023-04-11T00:45:13.023Z,2.20
2023-04-11T00:47:40.801Z,2.30
2023-04-11T00:50:08.930Z,2.20
2023-04-11T00:52:38.508Z,2.20
2023-04-11T00:55:07.226Z,2.20
2023-04-11T00:57:34.752Z,2.20
2023-04-11T01:00:03.975Z,2.20
2023-04-11T01:02:31.084Z,2.10
2023-04-11T01:05:00.928Z,2.10
2023-04-11T01:07:29.523Z,2.10
2023-04-11T01:09:57.090Z,2.10
2023-04-11T01:12:24.773Z,2.10
2023-04-11T01:14:52.107Z,2.00
2023-04-11T01:17:21.948Z,2.00
2023-04-11T01:19:48.973Z,2.00
2023-04-11T01:22:18.215Z,1.90
2023-04-11T01:24:45.313Z,1.90
2023-04-11T01:27:12.269Z,1.90
2023-04-11T01:29:39.194Z,1.90
2023-04-11T01:32:06.327Z,1.90
2023-04-11T01:34:35.086Z,1.90
2023-04-11T01:37:02.748Z,1.90
2023-04-11T01:39:30.180Z,1.90
2023-04-11T01:41:58.000Z,1.90
2023-04-11T01:44:26.539Z,1.90
2023-04-11T01:46:53.613Z,1.90
2023-04-11T01:49:21.715Z,1.90
2023-04-11T01:51:48.618Z,1.90
2023-04-11T01:54:15.718Z,1.80
2023-04-11T01:56:42.722Z,1.80
2023-04-11T01:59:09.652Z,1.80
2023-04-11T02:01:36.965Z,1.80
2023-04-11T02:04:04.142Z,1.80
2023-04-11T02:06:32.031Z,1.80
2023-04-11T02:08:59.008Z,1.70
2023-04-11T02:11:26.054Z,1.70
2023-04-11T02:13:52.972Z,1.70
2023-04-11T02:16:20.887Z,1.60
2023-04-11T02:18:47.792Z,1.60
2023-04-11T02:21:14.705Z,1.60
2023-04-11T02:23:41.660Z,1.60
2023-04-11T02:26:08.608Z,1.60
2023-04-11T02:28:36.795Z,1.60
2023-04-11T02:31:04.009Z,1.60
2023-04-11T02:33:31.048Z,1.60
2023-04-11T02:35:58.127Z,1.60
2023-04-11T02:38:25.135Z,1.60
2023-04-11T02:40:51.987Z,1.60
2023-04-11T02:43:18.897Z,1.50
2023-04-11T02:45:45.797Z,1.50
2023-04-11T02:48:12.691Z,1.50
2023-04-11T02:50:41.101Z,1.50
2023-04-11T02:53:08.227Z,1.50
2023-04-11T02:55:35.237Z,1.50
2023-04-11T02:58:02.287Z,1.50
2023-04-11T03:00:29.443Z,1.40
2023-04-11T03:02:57.141Z,1.50
2023-04-11T03:05:24.157Z,1.40
2023-04-11T03:07:51.152Z,1.40
2023-04-11T03:10:18.110Z,1.40
2023-04-11T03:12:45.024Z,1.40
2023-04-11T03:15:15.463Z,1.50
2023-04-11T03:17:42.644Z,1.60
2023-04-11T03:20:11.858Z,1.50
2023-04-11T03:22:39.128Z,1.50
2023-04-11T03:25:07.448Z,1.50
2023-04-11T03:27:34.367Z,1.60
2023-04-11T03:30:01.370Z,1.60
2023-04-11T03:32:28.444Z,1.60
2023-04-11T03:34:55.473Z,1.50
2023-04-11T03:37:22.414Z,1.50
2023-04-11T03:39:49.358Z,1.50
2023-04-11T03:42:16.308Z,1.50
2023-04-11T03:44:43.199Z,1.50
2023-04-11T03:47:10.096Z,1.50
2023-04-11T03:49:37.001Z,1.50
2023-04-11T03:52:04.989Z,1.60
2023-04-11T03:54:32.486Z,1.60
2023-04-11T03:56:59.380Z,1.60
2023-04-11T03:59:26.276Z,1.60
2023-04-11T04:01:53.241Z,1.60
2023-04-11T04:04:20.596Z,1.60
2023-04-11T04:06:47.532Z,1.60
2023-04-11T04:09:14.361Z,1.60
2023-04-11T04:11:41.247Z,1.60
2023-04-11T04:14:08.148Z,1.60
2023-04-11T04:16:35.166Z,1.70
2023-04-11T04:19:02.714Z,1.70
2023-04-11T04:21:32.514Z,1.70
2023-04-11T04:24:03.716Z,1.80
2023-04-11T04:26:31.447Z,1.80
2023-04-11T04:29:04.877Z,1.80
2023-04-11T04:31:35.044Z,1.90
2023-04-11T04:34:10.606Z,1.90
2023-04-11T04:36:48.003Z,1.80
2023-04-11T04:39:19.205Z,1.80
2023-04-11T04:41:49.811Z,1.80
2023-04-11T04:44:16.815Z,1.90
2023-04-11T04:46:43.979Z,1.90
2023-04-11T04:49:10.949Z,1.90
2023-04-11T04:51:40.310Z,1.90
2023-04-11T04:54:07.192Z,1.90
2023-04-11T04:56:34.182Z,2.00
2023-04-11T04:59:01.195Z,2.00
2023-04-11T05:01:28.192Z,2.10
2023-04-11T05:04:01.729Z,2.10
2023-04-11T05:06:33.779Z,2.10
2023-04-11T05:09:02.101Z,2.20
2023-04-11T05:11:29.427Z,2.20
2023-04-11T05:13:56.475Z,2.20
2023-04-11T05:16:23.581Z,2.10
2023-04-11T05:18:50.573Z,2.30
2023-04-11T05:21:17.511Z,2.30
2023-04-11T05:23:44.458Z,2.30
2023-04-11T05:26:11.742Z,2.40
2023-04-11T05:28:38.682Z,2.40
2023-04-11T05:31:06.429Z,2.50
2023-04-11T05:33:33.335Z,2.60
2023-04-11T05:36:00.682Z,2.70
2023-04-11T05:38:27.589Z,2.70
2023-04-11T05:40:54.492Z,2.90
2023-04-11T05:43:21.398Z,2.90
2023-04-11T05:45:48.801Z,3.00
2023-04-11T05:48:16.249Z,3.00
2023-04-11T05:50:43.320Z,3.00
2023-04-11T05:53:10.366Z,3.10
2023-04-11T05:55:37.761Z,3.20
2023-04-11T05:58:05.253Z,3.30
2023-04-11T06:00:32.534Z,3.30
2023-04-11T06:03:00.540Z,3.40
2023-04-11T06:05:31.583Z,3.50
2023-04-11T06:07:59.654Z,3.60
2023-04-11T06:10:27.269Z,3.80
2023-04-11T06:12:54.437Z,3.90
2023-04-11T06:15:22.784Z,4.00
2023-04-11T06:17:50.090Z,4.10
2023-04-11T06:20:17.144Z,4.30
2023-04-11T06:22:46.328Z,4.40
2023-04-11T06:25:13.523Z,4.50
2023-04-11T06:27:40.565Z,4.50
2023-04-11T06:30:08.304Z,4.60
2023-04-11T06:32:35.533Z,4.70
2023-04-11T06:35:02.617Z,4.90
2023-04-11T06:37:29.488Z,5.00
2023-04-11T06:39:56.358Z,5.10
2023-04-11T06:42:23.432Z,5.20
2023-04-11T06:44:50.422Z,5.30
2023-04-11T06:47:17.345Z,5.50
2023-04-11T06:49:44.254Z,5.50
2023-04-11T06:52:11.265Z,5.60
2023-04-11T06:54:38.188Z,5.70
2023-04-11T06:57:05.078Z,5.70
2023-04-11T06:59:32.431Z,5.80
2023-04-11T07:01:59.655Z,5.90
2023-04-11T07:04:26.738Z,6.00
2023-04-11T07:06:53.758Z,6.00
2023-04-11T07:09:20.681Z,6.00
2023-04-11T07:11:47.624Z,6.10
2023-04-11T07:14:14.786Z,6.10
2023-04-11T07:16:41.802Z,6.10
2023-04-11T07:19:09.062Z,6.10
2023-04-11T07:21:38.312Z,6.10
2023-04-11T07:24:06.605Z,6.20
2023-04-11T07:26:35.368Z,6.20
2023-04-11T07:29:02.464Z,6.30
2023-04-11T07:31:29.424Z,6.40
2023-04-11T07:33:56.524Z,6.40
2023-04-11T07:36:23.600Z,6.40
2023-04-11T07:38:50.583Z,6.40
2023-04-11T07:41:17.531Z,6.30
2023-04-11T07:43:44.459Z,6.30
2023-04-11T07:46:12.477Z,6.30
2023-04-11T07:48:39.480Z,6.30
2023-04-11T07:51:06.778Z,6.30
2023-04-11T07:53:34.029Z,6.40
2023-04-11T07:56:01.075Z,6.40
2023-04-11T07:58:28.605Z,6.50
2023-04-11T08:00:55.601Z,6.50
2023-04-11T08:03:23.822Z,6.50
2023-04-11T08:05:52.289Z,6.60
2023-04-11T08:08:19.224Z,6.60
2023-04-11T08:10:46.114Z,6.70
2023-04-11T08:13:12.998Z,6.70
2023-04-11T08:15:39.990Z,6.70
2023-04-11T08:18:06.985Z,6.60
2023-04-11T08:20:33.988Z,6.60
2023-04-11T08:23:06.215Z,6.70
2023-04-11T08:25:33.361Z,6.70
2023-04-11T08:28:00.644Z,6.60
2023-04-11T08:30:27.778Z,6.60
2023-04-11T08:32:54.705Z,6.50
2023-04-11T08:35:21.852Z,6.50
2023-04-11T08:37:49.602Z,6.50
2023-04-11T08:40:16.899Z,6.60
2023-04-11T08:42:44.471Z,6.60
2023-04-11T08:45:11.874Z,6.60
2023-04-11T08:47:38.849Z,6.70
2023-04-11T08:50:07.223Z,6.60
2023-04-11T08:52:34.724Z,6.60
2023-04-11T08:55:01.766Z,6.60
2023-04-11T08:57:33.376Z,6.60
2023-04-11T09:00:09.256Z,6.60
2023-04-11T09:02:36.243Z,6.50
2023-04-11T09:05:03.192Z,6.50
2023-04-11T09:07:30.080Z,6.50
2023-04-11T09:09:57.065Z,6.60
2023-04-11T09:12:29.771Z,6.60
2023-04-11T09:14:57.010Z,6.60
2023-04-11T09:17:24.083Z,6.60
2023-04-11T09:19:51.160Z,6.60
2023-04-11T09:22:18.059Z,6.60
2023-04-11T09:24:46.794Z,6.60
2023-04-11T09:27:16.798Z,6.60
2023-04-11T09:29:45.624Z,6.60
2023-04-11T09:32:31.284Z,6.60
2023-04-11T09:35:18.621Z,6.70
2023-04-11T09:37:56.970Z,6.70
2023-04-11T09:40:26.293Z,6.80
2023-04-11T09:42:58.479Z,6.80
2023-04-11T09:45:26.636Z,6.80
2023-04-11T09:47:58.332Z,6.70
2023-04-11T09:50:28.718Z,6.70
2023-04-11T09:52:58.933Z,6.70
2023-04-11T09:55:26.540Z,6.80
2023-04-11T09:57:54.774Z,6.80
2023-04-11T10:00:24.392Z,6.80
2023-04-11T10:02:53.589Z,6.70
2023-04-11T10:05:27.011Z,6.80
2023-04-11T10:08:05.940Z,6.70
2023-04-11T10:10:33.302Z,6.70
2023-04-11T10:13:00.230Z,6.80
2023-04-11T10:15:27.571Z,6.90
2023-04-11T10:18:13.768Z,7.10
2023-04-11T10:20:47.499Z,7.10
2023-04-11T10:23:15.038Z,7.10
2023-04-11T10:26:00.715Z,7.00
2023-04-11T10:28:34.844Z,7.10
2023-04-11T10:31:04.526Z,7.10
2023-04-11T10:33:32.692Z,7.10
2023-04-11T10:36:05.653Z,7.20
2023-04-11T10:38:42.989Z,7.30
2023-04-11T10:41:31.939Z,7.40
2023-04-11T10:44:23.379Z,7.50
2023-04-11T10:46:53.833Z,7.60
2023-04-11T10:49:38.413Z,7.60
2023-04-11T10:52:24.404Z,7.50
2023-04-11T10:54:53.250Z,7.60
2023-04-11T10:57:21.257Z,7.80
2023-04-11T10:59:51.011Z,7.80
2023-04-11T11:02:19.910Z,7.80
2023-04-11T11:04:47.459Z,7.80
2023-04-11T11:07:17.081Z,7.70
2023-04-11T11:09:49.023Z,7.80
2023-04-11T11:12:16.791Z,7.70
2023-04-11T11:14:45.761Z,7.80
2023-04-11T11:17:14.252Z,7.90
2023-04-11T11:19:48.111Z,8.00
2023-04-11T11:22:16.640Z,8.00
2023-04-11T11:24:43.627Z,8.10
2023-04-11T11:27:24.556Z,8.00
2023-04-11T11:29:52.118Z,8.00
2023-04-11T11:32:26.420Z,8.00
2023-04-11T11:34:54.122Z,8.10
2023-04-11T11:37:21.551Z,8.00
2023-04-11T11:39:50.007Z,8.00
2023-04-11T11:42:17.331Z,8.10
2023-04-11T11:44:44.228Z,8.20
2023-04-11T11:47:15.135Z,8.20
2023-04-11T11:49:49.155Z,8.30
2023-04-11T11:52:35.248Z,8.40
2023-04-11T11:55:09.602Z,8.30
2023-04-11T11:57:37.977Z,8.30
2023-04-11T12:00:11.462Z,8.40
2023-04-11T12:02:40.227Z,8.50
2023-04-11T12:05:07.903Z,8.40
2023-04-11T12:07:37.480Z,8.40
2023-04-11T12:10:09.520Z,8.40
2023-04-11T12:12:41.341Z,8.50
2023-04-11T12:15:18.738Z,8.50
2023-04-11T12:17:52.985Z,8.50
2023-04-11T12:20:24.417Z,8.50
2023-04-11T12:22:53.011Z,8.50
2023-04-11T12:25:22.289Z,8.60
2023-04-11T12:27:49.386Z,8.70
2023-04-11T12:30:16.442Z,8.70
2023-04-11T12:32:45.051Z,8.80
2023-04-11T12:35:13.015Z,8.90
2023-04-11T12:37:40.014Z,8.90
2023-04-11T12:40:13.299Z,9.00
2023-04-11T12:42:55.155Z,9.00
2023-04-11T12:45:23.268Z,9.10
2023-04-11T12:47:50.258Z,9.20
2023-04-11T12:50:17.263Z,9.20
2023-04-11T12:52:44.390Z,9.10
2023-04-11T12:55:12.723Z,8.90
2023-04-11T12:57:39.810Z,8.80
2023-04-11T13:00:07.872Z,8.70
2023-04-11T13:02:42.128Z,8.70
2023-04-11T13:05:12.116Z,8.70
2023-04-11T13:07:39.308Z,8.60
2023-04-11T13:10:09.635Z,8.50
2023-04-11T13:12:41.547Z,8.60
2023-04-11T13:15:09.897Z,8.50
2023-04-11T13:17:36.941Z,8.40
2023-04-11T13:20:08.240Z,8.50
2023-04-11T13:22:35.154Z,8.50
2023-04-11T13:25:02.136Z,8.60
2023-04-11T13:27:29.038Z,8.60
2023-04-11T13:29:55.970Z,8.70
2023-04-11T13:32:22.864Z,8.60
2023-04-11T13:34:49.727Z,8.50
2023-04-11T13:37:16.607Z,8.30
2023-04-11T13:39:43.556Z,8.30
2023-04-11T13:42:11.784Z,8.20
2023-04-11T13:44:38.722Z,8.20
2023-04-11T13:47:05.633Z,8.20
2023-04-11T13:49:32.656Z,8.20
2023-04-11T13:52:00.036Z,8.20
2023-04-11T13:54:27.069Z,8.20
2023-04-11T13:56:53.901Z,8.20
2023-04-11T13:59:20.818Z,8.10
2023-04-11T14:01:47.695Z,8.20
2023-04-11T14:04:14.711Z,8.20
2023-04-11T14:06:43.348Z,8.20
2023-04-11T14:09:10.284Z,8.20
2023-04-11T14:11:37.168Z,8.20
2023-04-11T14:14:04.085Z,8.10
2023-04-11T14:16:31.017Z,8.10
2023-04-11T14:18:57.970Z,8.10
2023-04-11T14:21:24.952Z,8.00
2023-04-11T14:23:51.832Z,8.00
2023-04-11T14:26:20.088Z,8.00
2023-04-11T14:28:46.990Z,7.90
2023-04-11T14:31:14.020Z,8.00
2023-04-11T14:33:40.946Z,8.00
2023-04-11T14:36:08.211Z,8.10
2023-04-11T14:38:35.091Z,8.10
2023-04-11T14:41:02.054Z,8.10
2023-04-11T14:43:29.038Z,8.20
2023-04-11T14:45:57.904Z,8.30
2023-04-11T14:48:27.333Z,8.40
2023-04-11T14:50:57.507Z,8.30
2023-04-11T14:53:25.066Z,8.40
2023-04-11T14:55:52.046Z,8.40
2023-04-11T14:58:19.059Z,8.30
2023-04-11T15:00:46.049Z,8.30
2023-04-11T15:03:13.145Z,8.30
2023-04-11T15:05:40.451Z,8.20
2023-04-11T15:08:08.214Z,8.20
2023-04-11T15:10:35.150Z,8.10
2023-04-11T15:13:02.142Z,8.20
2023-04-11T15:15:29.121Z,8.20
2023-04-11T15:18:27.925Z,8.20
2023-04-11T15:20:57.152Z,8.10
2023-04-11T15:23:24.688Z,8.00
2023-04-11T15:25:56.824Z,7.90
2023-04-11T15:28:24.851Z,7.90
2023-04-11T15:30:53.295Z,7.90
2023-04-11T15:33:22.152Z,7.80
2023-04-11T15:35:49.157Z,7.70
2023-04-11T15:38:16.884Z,7.80
2023-04-11T15:40:44.223Z,7.80
2023-04-11T15:43:11.188Z,7.80
2023-04-11T15:45:39.815Z,7.80
2023-04-11T15:48:07.077Z,7.90
2023-04-11T15:50:34.136Z,7.90
2023-04-11T15:53:01.067Z,7.90
2023-04-11T15:55:28.729Z,7.90
2023-04-11T15:57:56.584Z,7.80
2023-04-11T16:00:23.797Z,7.80
2023-04-11T16:02:51.350Z,7.80
2023-04-11T16:05:20.952Z,7.80
2023-04-11T16:07:48.470Z,7.80
2023-04-11T16:10:15.579Z,7.70
2023-04-11T16:12:42.521Z,7.80
2023-04-11T16:15:09.609Z,7.70
2023-04-11T16:17:36.531Z,7.70
2023-04-11T16:20:08.759Z,7.70
2023-04-11T16:22:37.246Z,7.70
2023-04-11T16:25:07.674Z,7.80
2023-04-11T16:27:34.598Z,7.80
2023-04-11T16:30:04.955Z,7.70
2023-04-11T16:32:34.505Z,7.70
2023-04-11T16:35:01.447Z,7.70
2023-04-11T16:37:28.489Z,7.70
2023-04-11T16:39:56.032Z,7.70
2023-04-11T16:42:23.334Z,7.70
2023-04-11T16:44:50.366Z,7.60
2023-04-11T16:47:17.577Z,7.50
2023-04-11T16:49:45.768Z,7.50
2023-04-11T16:52:13.879Z,7.40
2023-04-11T16:54:40.772Z,7.40
2023-04-11T16:57:07.744Z,7.40
2023-04-11T16:59:34.712Z,7.40
2023-04-11T17:02:01.772Z,7.30
2023-04-11T17:04:28.946Z,7.10
2023-04-11T17:06:57.453Z,7.00
2023-04-11T17:09:24.572Z,6.90
2023-04-11T17:11:51.548Z,6.80
2023-04-11T17:14:18.483Z,6.70
2023-04-11T17:16:46.137Z,6.70
2023-04-11T17:19:13.166Z,6.50
2023-04-11T17:21:40.399Z,6.50
2023-04-11T17:24:07.292Z,6.40
2023-04-11T17:26:34.616Z,6.40
2023-04-11T17:29:01.644Z,6.30
2023-04-11T17:31:29.359Z,6.30
2023-04-11T17:33:56.717Z,6.30
2023-04-11T17:36:24.405Z,6.30
2023-04-11T17:38:54.371Z,6.30
2023-04-11T17:41:21.528Z,6.20
2023-04-11T17:43:48.427Z,6.10
2023-04-11T17:46:15.457Z,6.10
2023-04-11T17:48:42.429Z,6.10
2023-04-11T17:51:09.310Z,6.10
2023-04-11T17:53:36.162Z,6.10
2023-04-11T17:56:04.759Z,6.00
2023-04-11T17:58:32.023Z,5.90
2023-04-11T18:00:59.442Z,5.90
2023-04-11T18:03:26.672Z,5.90
2023-04-11T18:05:54.730Z,5.90
2023-04-11T18:08:36.180Z,5.80
2023-04-11T18:11:10.018Z,5.80
2023-04-11T18:13:37.021Z,5.80
2023-04-11T18:16:04.365Z,5.70
2023-04-11T18:18:31.354Z,5.70
2023-04-11T18:21:08.000Z,5.80
2023-04-11T18:23:35.292Z,5.70
2023-04-11T18:26:02.258Z,5.70
2023-04-11T18:28:29.483Z,5.80
2023-04-11T18:30:56.685Z,5.70
2023-04-11T18:33:23.894Z,5.70
2023-04-11T18:35:51.150Z,5.70
2023-04-11T18:38:18.060Z,5.60
2023-04-11T18:40:45.998Z,5.60
2023-04-11T18:43:13.130Z,5.70
2023-04-11T18:45:41.598Z,5.70
2023-04-11T18:48:09.528Z,5.70
2023-04-11T18:50:43.054Z,5.70
2023-04-11T18:53:13.921Z,5.70
2023-04-11T18:55:41.453Z,5.70
2023-04-11T18:58:09.853Z,5.70
2023-04-11T19:00:39.136Z,5.70
2023-04-11T19:03:07.050Z,5.70
2023-04-11T19:05:34.686Z,5.70
2023-04-11T19:08:01.962Z,5.60
2023-04-11T19:10:28.940Z,5.60
2023-04-11T19:12:56.020Z,5.60
2023-04-11T19:15:23.262Z,5.60
2023-04-11T19:17:50.596Z,5.60
2023-04-11T19:20:19.153Z,5.60
2023-04-11T19:22:46.576Z,5.60
2023-04-11T19:25:13.690Z,5.60
2023-04-11T19:27:42.486Z,5.60
2023-04-11T19:30:10.945Z,5.60
2023-04-11T19:32:41.043Z,5.60
2023-04-11T19:35:10.650Z,5.60
2023-04-11T19:37:38.044Z,5.60
2023-04-11T19:40:15.215Z,5.50
2023-04-11T19:42:43.188Z,5.50
2023-04-11T19:45:11.784Z,5.50
2023-04-11T19:47:40.199Z,5.50
2023-04-11T19:50:13.103Z,5.40
2023-04-11T19:52:41.348Z,5.50
2023-04-11T19:55:09.502Z,5.50
2023-04-11T19:57:39.026Z,5.40
2023-04-11T20:00:14.351Z,5.50
2023-04-11T20:02:48.063Z,5.40
2023-04-11T20:05:17.252Z,5.40
2023-04-11T20:07:45.207Z,5.50
2023-04-11T20:10:13.880Z,5.50
2023-04-11T20:12:41.110Z,5.50
2023-04-11T20:15:08.711Z,5.50
2023-04-11T20:17:36.101Z,5.60
2023-04-11T20:20:06.623Z,5.60
2023-04-11T20:22:33.624Z,5.70
2023-04-11T20:25:00.535Z,5.60
2023-04-11T20:27:28.338Z,5.70
2023-04-11T20:29:56.769Z,5.70
2023-04-11T20:32:23.777Z,5.70
2023-04-11T20:34:50.714Z,5.70
2023-04-11T20:37:19.482Z,5.70
2023-04-11T20:39:46.785Z,5.70
2023-04-11T20:42:13.805Z,5.70
2023-04-11T20:44:42.686Z,5.70
2023-04-11T20:47:09.667Z,5.60
2023-04-11T20:49:36.610Z,5.70
2023-04-11T20:52:03.962Z,5.70
2023-04-11T20:54:31.570Z,5.60
2023-04-11T20:56:58.424Z,5.60
2023-04-11T20:59:26.344Z,5.60
2023-04-11T21:01:53.889Z,5.60
2023-04-11T21:04:22.154Z,5.60
2023-04-11T21:06:49.971Z,5.60
2023-04-11T21:09:17.449Z,5.60
2023-04-11T21:11:44.317Z,5.60
2023-04-11T21:14:11.168Z,5.50
2023-04-11T21:16:38.075Z,5.50
2023-04-11T21:19:05.016Z,5.60
2023-04-11T21:21:31.876Z,5.60
2023-04-11T21:23:58.945Z,5.60
2023-04-11T21:26:26.220Z,5.50
2023-04-11T21:28:53.204Z,5.50
2023-04-11T21:31:20.196Z,5.50
2023-04-11T21:33:47.177Z,5.50
2023-04-11T21:36:14.114Z,5.50
2023-04-11T21:38:41.058Z,5.40
2023-04-11T21:41:07.986Z,5.40
2023-04-11T21:43:34.918Z,5.40
2023-04-11T21:46:01.845Z,5.40
2023-04-11T21:48:28.682Z,5.40
2023-04-11T21:50:55.563Z,5.40
2023-04-11T21:53:22.441Z,5.40
2023-04-11T21:55:49.267Z,5.40
2023-04-11T21:58:28.582Z,5.40
2023-04-11T22:00:55.938Z,5.40
2023-04-11T22:03:23.229Z,5.40
2023-04-11T22:05:52.494Z,5.40
2023-04-11T22:08:22.672Z,5.40
2023-04-11T22:10:50.906Z,5.40
2023-04-11T22:13:19.438Z,5.40
2023-04-11T22:15:48.833Z,5.40
2023-04-11T22:18:15.916Z,5.40
2023-04-11T22:20:44.234Z,5.50
2023-04-11T22:23:12.911Z,5.50
2023-04-11T22:25:42.360Z,5.50
2023-04-11T22:28:13.156Z,5.50
2023-04-11T22:30:40.086Z,5.50
2023-04-11T22:33:07.530Z,5.60
2023-04-11T22:35:35.195Z,5.60
2023-04-11T22:38:03.598Z,5.60
2023-04-11T22:40:30.545Z,5.60
2023-04-11T22:42:57.453Z,5.60
2023-04-11T22:45:24.465Z,5.70
2023-04-11T22:47:54.308Z,5.70
2023-04-11T22:50:21.753Z,5.70
2023-04-11T22:52:50.165Z,5.70
2023-04-11T22:55:18.733Z,5.80
2023-04-11T22:57:45.973Z,5.80
2023-04-11T23:00:16.460Z,5.90
2023-04-11T23:02:44.186Z,5.90
2023-04-11T23:05:11.260Z,6.00
2023-04-11T23:07:38.192Z,6.00
2023-04-11T23:10:06.570Z,6.00
2023-04-11T23:12:33.824Z,6.00
2023-04-11T23:15:02.433Z,6.00
2023-04-11T23:17:29.489Z,6.00
2023-04-11T23:19:59.471Z,6.00
2023-04-11T23:22:26.816Z,6.00
2023-04-11T23:24:53.905Z,6.00
2023-04-11T23:27:21.213Z,6.00
2023-04-11T23:29:52.741Z,6.10
2023-04-11T23:32:21.208Z,6.00
2023-04-11T23:34:48.161Z,5.90
2023-04-11T23:37:15.078Z,5.90
2023-04-11T23:39:42.157Z,5.90
2023-04-11T23:42:09.124Z,5.90
2023-04-11T23:44:36.003Z,6.00
2023-04-11T23:47:02.881Z,6.00
2023-04-11T23:49:29.808Z,6.00
2023-04-11T23:51:56.694Z,5.90
2023-04-11T23:54:23.659Z,5.90
2023-04-11T23:56:50.902Z,5.90
2023-04-11T23:59:17.850Z,5.90
